sensor_id;sensor_type;location;lat;lon;timestamp;P1;durP1;ratioP1;P2;durP2;ratioP2
85011;SDS011;75336;42.142;21.732;2024-02-23T00:00:11;44.60;;;25.10;;
85011;SDS011;75336;42.142;21.732;2024-02-23T00:02:37;31.52;;;19.92;;
85011;SDS011;75336;42.142;21.732;2024-02-23T00:05:04;33.63;;;20.60;;
85011;SDS011;75336;42.142;21.732;2024-02-23T00:07:30;34.00;;;17.80;;
85011;SDS011;75336;42.142;21.732;2024-02-23T00:09:56;42.15;;;24.92;;
85011;SDS011;75336;42.142;21.732;2024-02-23T00:12:22;44.20;;;25.92;;
85011;SDS011;75336;42.142;21.732;2024-02-23T00:14:48;43.25;;;26.10;;
85011;SDS011;75336;42.142;21.732;2024-02-23T00:17:16;44.92;;;26.70;;
85011;SDS011;75336;42.142;21.732;2024-02-23T00:19:42;44.78;;;26.48;;
85011;SDS011;75336;42.142;21.732;2024-02-23T00:22:08;55.80;;;32.13;;
85011;SDS011;75336;42.142;21.732;2024-02-23T00:24:35;38.90;;;21.58;;
85011;SDS011;75336;42.142;21.732;2024-02-23T00:27:02;48.00;;;24.27;;
85011;SDS011;75336;42.142;21.732;2024-02-23T00:29:28;42.75;;;25.92;;
85011;SDS011;75336;42.142;21.732;2024-02-23T00:31:54;37.13;;;21.52;;
85011;SDS011;75336;42.142;21.732;2024-02-23T00:34:20;38.08;;;22.38;;
85011;SDS011;75336;42.142;21.732;2024-02-23T00:36:47;36.05;;;20.73;;
85011;SDS011;75336;42.142;21.732;2024-02-23T00:39:13;35.40;;;19.98;;
85011;SDS011;75336;42.142;21.732;2024-02-23T00:41:39;32.42;;;20.45;;
85011;SDS011;75336;42.142;21.732;2024-02-23T00:44:06;36.35;;;20.70;;
85011;SDS011;75336;42.142;21.732;2024-02-23T00:46:32;33.17;;;19.77;;
85011;SDS011;75336;42.142;21.732;2024-02-23T00:48:59;41.17;;;22.45;;
85011;SDS011;75336;42.142;21.732;2024-02-23T00:51:25;33.80;;;20.00;;
85011;SDS011;75336;42.142;21.732;2024-02-23T00:53:51;28.15;;;18.40;;
85011;SDS011;75336;42.142;21.732;2024-02-23T00:56:18;28.60;;;19.23;;
85011;SDS011;75336;42.142;21.732;2024-02-23T00:58:44;33.42;;;19.30;;
85011;SDS011;75336;42.142;21.732;2024-02-23T01:01:10;46.35;;;24.60;;
85011;SDS011;75336;42.142;21.732;2024-02-23T01:03:36;47.15;;;24.33;;
85011;SDS011;75336;42.142;21.732;2024-02-23T01:06:02;35.40;;;20.60;;
85011;SDS011;75336;42.142;21.732;2024-02-23T01:08:28;29.58;;;17.63;;
85011;SDS011;75336;42.142;21.732;2024-02-23T01:10:54;28.33;;;18.27;;
85011;SDS011;75336;42.142;21.732;2024-02-23T01:13:20;28.05;;;17.05;;
85011;SDS011;75336;42.142;21.732;2024-02-23T01:15:47;30.27;;;18.83;;
85011;SDS011;75336;42.142;21.732;2024-02-23T01:18:13;30.23;;;18.00;;
85011;SDS011;75336;42.142;21.732;2024-02-23T01:20:39;27.85;;;17.02;;
85011;SDS011;75336;42.142;21.732;2024-02-23T01:23:05;30.77;;;18.10;;
85011;SDS011;75336;42.142;21.732;2024-02-23T01:25:31;36.22;;;19.33;;
85011;SDS011;75336;42.142;21.732;2024-02-23T01:28:00;31.02;;;18.90;;
85011;SDS011;75336;42.142;21.732;2024-02-23T01:30:26;30.67;;;17.50;;
85011;SDS011;75336;42.142;21.732;2024-02-23T01:32:52;37.60;;;21.38;;
85011;SDS011;75336;42.142;21.732;2024-02-23T01:35:18;43.42;;;24.80;;
85011;SDS011;75336;42.142;21.732;2024-02-23T01:37:44;39.58;;;24.20;;
85011;SDS011;75336;42.142;21.732;2024-02-23T01:40:10;40.65;;;26.00;;
85011;SDS011;75336;42.142;21.732;2024-02-23T01:42:37;37.72;;;22.80;;
85011;SDS011;75336;42.142;21.732;2024-02-23T01:45:03;44.53;;;27.30;;
85011;SDS011;75336;42.142;21.732;2024-02-23T01:47:30;38.90;;;24.33;;
85011;SDS011;75336;42.142;21.732;2024-02-23T01:49:57;34.17;;;22.50;;
85011;SDS011;75336;42.142;21.732;2024-02-23T01:52:23;33.15;;;21.10;;
85011;SDS011;75336;42.142;21.732;2024-02-23T01:54:50;30.38;;;19.00;;
85011;SDS011;75336;42.142;21.732;2024-02-23T01:57:16;34.47;;;19.08;;
85011;SDS011;75336;42.142;21.732;2024-02-23T01:59:43;32.35;;;18.95;;
85011;SDS011;75336;42.142;21.732;2024-02-23T02:02:09;26.70;;;17.17;;
85011;SDS011;75336;42.142;21.732;2024-02-23T02:04:35;29.95;;;19.20;;
85011;SDS011;75336;42.142;21.732;2024-02-23T02:07:01;30.95;;;18.05;;
85011;SDS011;75336;42.142;21.732;2024-02-23T02:09:27;28.27;;;18.50;;
85011;SDS011;75336;42.142;21.732;2024-02-23T02:11:54;21.98;;;14.07;;
85011;SDS011;75336;42.142;21.732;2024-02-23T02:14:20;28.58;;;16.33;;
85011;SDS011;75336;42.142;21.732;2024-02-23T02:16:46;31.05;;;18.40;;
85011;SDS011;75336;42.142;21.732;2024-02-23T02:19:12;31.10;;;18.33;;
85011;SDS011;75336;42.142;21.732;2024-02-23T02:21:38;28.88;;;17.50;;
85011;SDS011;75336;42.142;21.732;2024-02-23T02:24:06;34.03;;;17.42;;
85011;SDS011;75336;42.142;21.732;2024-02-23T02:26:32;31.92;;;18.85;;
85011;SDS011;75336;42.142;21.732;2024-02-23T02:28:58;31.80;;;17.17;;
85011;SDS011;75336;42.142;21.732;2024-02-23T02:31:24;30.30;;;17.65;;
85011;SDS011;75336;42.142;21.732;2024-02-23T02:33:50;41.33;;;22.08;;
85011;SDS011;75336;42.142;21.732;2024-02-23T02:36:16;37.20;;;22.02;;
85011;SDS011;75336;42.142;21.732;2024-02-23T02:38:42;33.22;;;19.52;;
85011;SDS011;75336;42.142;21.732;2024-02-23T02:41:09;34.03;;;19.95;;
85011;SDS011;75336;42.142;21.732;2024-02-23T02:43:35;34.15;;;18.90;;
85011;SDS011;75336;42.142;21.732;2024-02-23T02:46:01;31.00;;;17.33;;
85011;SDS011;75336;42.142;21.732;2024-02-23T02:48:27;28.00;;;16.00;;
85011;SDS011;75336;42.142;21.732;2024-02-23T02:50:53;26.70;;;16.38;;
85011;SDS011;75336;42.142;21.732;2024-02-23T02:53:20;29.50;;;17.60;;
85011;SDS011;75336;42.142;21.732;2024-02-23T02:55:46;34.65;;;17.08;;
85011;SDS011;75336;42.142;21.732;2024-02-23T02:58:13;27.08;;;17.10;;
85011;SDS011;75336;42.142;21.732;2024-02-23T03:00:39;29.13;;;17.10;;
85011;SDS011;75336;42.142;21.732;2024-02-23T03:03:05;30.55;;;18.85;;
85011;SDS011;75336;42.142;21.732;2024-02-23T03:05:31;33.42;;;18.38;;
85011;SDS011;75336;42.142;21.732;2024-02-23T03:07:58;27.67;;;16.75;;
85011;SDS011;75336;42.142;21.732;2024-02-23T03:10:24;26.23;;;16.35;;
85011;SDS011;75336;42.142;21.732;2024-02-23T03:12:50;31.48;;;19.85;;
85011;SDS011;75336;42.142;21.732;2024-02-23T03:15:16;33.63;;;17.80;;
85011;SDS011;75336;42.142;21.732;2024-02-23T03:17:42;36.60;;;21.10;;
85011;SDS011;75336;42.142;21.732;2024-02-23T03:20:10;39.53;;;20.55;;
85011;SDS011;75336;42.142;21.732;2024-02-23T03:22:37;35.88;;;20.52;;
85011;SDS011;75336;42.142;21.732;2024-02-23T03:25:03;37.00;;;18.95;;
85011;SDS011;75336;42.142;21.732;2024-02-23T03:27:36;35.05;;;19.85;;
85011;SDS011;75336;42.142;21.732;2024-02-23T03:30:02;40.22;;;22.30;;
85011;SDS011;75336;42.142;21.732;2024-02-23T03:32:29;35.35;;;19.17;;
85011;SDS011;75336;42.142;21.732;2024-02-23T03:35:01;34.95;;;20.95;;
85011;SDS011;75336;42.142;21.732;2024-02-23T03:37:27;20.17;;;12.32;;
85011;SDS011;75336;42.142;21.732;2024-02-23T03:39:53;23.80;;;16.52;;
85011;SDS011;75336;42.142;21.732;2024-02-23T03:42:19;26.88;;;15.60;;
85011;SDS011;75336;42.142;21.732;2024-02-23T03:44:45;27.63;;;16.23;;
85011;SDS011;75336;42.142;21.732;2024-02-23T03:47:11;26.42;;;16.30;;
85011;SDS011;75336;42.142;21.732;2024-02-23T03:49:38;26.92;;;16.25;;
85011;SDS011;75336;42.142;21.732;2024-02-23T03:52:04;25.88;;;14.32;;
85011;SDS011;75336;42.142;21.732;2024-02-23T03:54:30;22.17;;;12.55;;
85011;SDS011;75336;42.142;21.732;2024-02-23T03:56:57;32.67;;;17.00;;
85011;SDS011;75336;42.142;21.732;2024-02-23T03:59:23;35.92;;;21.08;;
85011;SDS011;75336;42.142;21.732;2024-02-23T04:01:50;34.17;;;20.38;;
85011;SDS011;75336;42.142;21.732;2024-02-23T04:04:16;33.92;;;19.42;;
85011;SDS011;75336;42.142;21.732;2024-02-23T04:06:42;27.40;;;15.82;;
85011;SDS011;75336;42.142;21.732;2024-02-23T04:09:08;29.45;;;17.23;;
85011;SDS011;75336;42.142;21.732;2024-02-23T04:11:34;29.70;;;17.30;;
85011;SDS011;75336;42.142;21.732;2024-02-23T04:14:00;25.83;;;15.98;;
85011;SDS011;75336;42.142;21.732;2024-02-23T04:16:27;29.58;;;16.27;;
85011;SDS011;75336;42.142;21.732;2024-02-23T04:18:53;27.70;;;15.13;;
85011;SDS011;75336;42.142;21.732;2024-02-23T04:21:20;27.65;;;16.73;;
85011;SDS011;75336;42.142;21.732;2024-02-23T04:23:46;36.45;;;19.17;;
85011;SDS011;75336;42.142;21.732;2024-02-23T04:26:13;47.05;;;23.95;;
85011;SDS011;75336;42.142;21.732;2024-02-23T04:28:39;34.17;;;16.33;;
85011;SDS011;75336;42.142;21.732;2024-02-23T04:31:06;28.63;;;18.48;;
85011;SDS011;75336;42.142;21.732;2024-02-23T04:33:32;26.42;;;17.02;;
85011;SDS011;75336;42.142;21.732;2024-02-23T04:35:58;36.38;;;19.48;;
85011;SDS011;75336;42.142;21.732;2024-02-23T04:38:24;32.13;;;17.23;;
85011;SDS011;75336;42.142;21.732;2024-02-23T04:40:50;30.73;;;17.73;;
85011;SDS011;75336;42.142;21.732;2024-02-23T04:43:16;29.60;;;19.52;;
85011;SDS011;75336;42.142;21.732;2024-02-23T04:45:43;25.55;;;14.20;;
85011;SDS011;75336;42.142;21.732;2024-02-23T04:48:09;31.33;;;18.92;;
85011;SDS011;75336;42.142;21.732;2024-02-23T04:50:35;34.15;;;19.65;;
85011;SDS011;75336;42.142;21.732;2024-02-23T04:53:02;30.40;;;18.17;;
85011;SDS011;75336;42.142;21.732;2024-02-23T04:55:28;38.83;;;20.30;;
85011;SDS011;75336;42.142;21.732;2024-02-23T04:57:54;33.83;;;20.20;;
85011;SDS011;75336;42.142;21.732;2024-02-23T05:00:21;30.42;;;17.55;;
85011;SDS011;75336;42.142;21.732;2024-02-23T05:02:47;35.28;;;19.42;;
85011;SDS011;75336;42.142;21.732;2024-02-23T05:05:14;24.90;;;14.85;;
85011;SDS011;75336;42.142;21.732;2024-02-23T05:07:40;37.42;;;20.08;;
85011;SDS011;75336;42.142;21.732;2024-02-23T05:10:06;35.17;;;18.30;;
85011;SDS011;75336;42.142;21.732;2024-02-23T05:12:33;33.85;;;18.65;;
85011;SDS011;75336;42.142;21.732;2024-02-23T05:14:59;30.08;;;19.10;;
85011;SDS011;75336;42.142;21.732;2024-02-23T05:17:25;32.63;;;17.70;;
85011;SDS011;75336;42.142;21.732;2024-02-23T05:19:51;32.08;;;18.88;;
85011;SDS011;75336;42.142;21.732;2024-02-23T05:22:17;32.95;;;17.77;;
85011;SDS011;75336;42.142;21.732;2024-02-23T05:24:44;39.42;;;19.60;;
85011;SDS011;75336;42.142;21.732;2024-02-23T05:27:10;32.33;;;18.45;;
85011;SDS011;75336;42.142;21.732;2024-02-23T05:29:36;18.77;;;14.55;;
85011;SDS011;75336;42.142;21.732;2024-02-23T05:32:03;48.88;;;24.27;;
85011;SDS011;75336;42.142;21.732;2024-02-23T05:34:29;41.75;;;23.67;;
85011;SDS011;75336;42.142;21.732;2024-02-23T05:36:55;25.33;;;16.42;;
85011;SDS011;75336;42.142;21.732;2024-02-23T05:39:21;34.28;;;19.23;;
85011;SDS011;75336;42.142;21.732;2024-02-23T05:41:48;41.60;;;20.90;;
85011;SDS011;75336;42.142;21.732;2024-02-23T05:44:14;53.88;;;29.02;;
85011;SDS011;75336;42.142;21.732;2024-02-23T05:46:42;44.10;;;26.02;;
85011;SDS011;75336;42.142;21.732;2024-02-23T05:49:08;41.33;;;22.65;;
85011;SDS011;75336;42.142;21.732;2024-02-23T05:51:35;39.08;;;21.38;;
85011;SDS011;75336;42.142;21.732;2024-02-23T05:54:01;38.53;;;22.50;;
85011;SDS011;75336;42.142;21.732;2024-02-23T05:56:27;27.30;;;16.50;;
85011;SDS011;75336;42.142;21.732;2024-02-23T05:58:53;35.55;;;19.55;;
85011;SDS011;75336;42.142;21.732;2024-02-23T06:01:20;36.97;;;21.15;;
85011;SDS011;75336;42.142;21.732;2024-02-23T06:03:46;36.35;;;21.73;;
85011;SDS011;75336;42.142;21.732;2024-02-23T06:06:12;35.85;;;21.92;;
85011;SDS011;75336;42.142;21.732;2024-02-23T06:08:39;42.33;;;22.58;;
85011;SDS011;75336;42.142;21.732;2024-02-23T06:11:05;53.00;;;26.48;;
85011;SDS011;75336;42.142;21.732;2024-02-23T06:13:31;42.22;;;23.55;;
85011;SDS011;75336;42.142;21.732;2024-02-23T06:15:59;46.30;;;26.55;;
85011;SDS011;75336;42.142;21.732;2024-02-23T06:18:25;49.08;;;24.40;;
85011;SDS011;75336;42.142;21.732;2024-02-23T06:20:51;51.20;;;25.85;;
85011;SDS011;75336;42.142;21.732;2024-02-23T06:23:17;48.22;;;26.52;;
85011;SDS011;75336;42.142;21.732;2024-02-23T06:25:44;44.78;;;24.05;;
85011;SDS011;75336;42.142;21.732;2024-02-23T06:28:10;48.72;;;27.42;;
85011;SDS011;75336;42.142;21.732;2024-02-23T06:30:36;47.40;;;26.33;;
85011;SDS011;75336;42.142;21.732;2024-02-23T06:33:02;38.58;;;21.45;;
85011;SDS011;75336;42.142;21.732;2024-02-23T06:35:29;54.70;;;28.33;;
85011;SDS011;75336;42.142;21.732;2024-02-23T06:37:56;45.08;;;24.98;;
85011;SDS011;75336;42.142;21.732;2024-02-23T06:40:22;41.97;;;25.80;;
85011;SDS011;75336;42.142;21.732;2024-02-23T06:42:48;42.15;;;27.23;;
85011;SDS011;75336;42.142;21.732;2024-02-23T06:45:15;35.60;;;22.85;;
85011;SDS011;75336;42.142;21.732;2024-02-23T06:47:41;45.08;;;21.90;;
85011;SDS011;75336;42.142;21.732;2024-02-23T06:50:09;50.00;;;29.45;;
85011;SDS011;75336;42.142;21.732;2024-02-23T06:52:35;75.25;;;44.05;;
85011;SDS011;75336;42.142;21.732;2024-02-23T06:55:02;93.05;;;67.45;;
85011;SDS011;75336;42.142;21.732;2024-02-23T06:57:28;91.03;;;63.15;;
85011;SDS011;75336;42.142;21.732;2024-02-23T06:59:56;65.78;;;40.72;;
85011;SDS011;75336;42.142;21.732;2024-02-23T07:02:22;49.63;;;30.42;;
85011;SDS011;75336;42.142;21.732;2024-02-23T07:04:48;47.67;;;29.70;;
85011;SDS011;75336;42.142;21.732;2024-02-23T07:07:14;39.88;;;26.48;;
85011;SDS011;75336;42.142;21.732;2024-02-23T07:09:40;54.53;;;32.05;;
85011;SDS011;75336;42.142;21.732;2024-02-23T07:12:07;37.15;;;21.92;;
85011;SDS011;75336;42.142;21.732;2024-02-23T07:14:35;48.65;;;27.83;;
85011;SDS011;75336;42.142;21.732;2024-02-23T07:17:01;41.40;;;26.80;;
85011;SDS011;75336;42.142;21.732;2024-02-23T07:19:27;37.58;;;24.67;;
85011;SDS011;75336;42.142;21.732;2024-02-23T07:21:54;46.33;;;24.67;;
85011;SDS011;75336;42.142;21.732;2024-02-23T07:24:20;60.53;;;41.25;;
85011;SDS011;75336;42.142;21.732;2024-02-23T07:26:46;32.08;;;22.52;;
85011;SDS011;75336;42.142;21.732;2024-02-23T07:29:13;30.92;;;21.80;;
85011;SDS011;75336;42.142;21.732;2024-02-23T07:31:39;28.15;;;17.73;;
85011;SDS011;75336;42.142;21.732;2024-02-23T07:34:05;29.83;;;19.05;;
85011;SDS011;75336;42.142;21.732;2024-02-23T07:36:31;26.58;;;18.08;;
85011;SDS011;75336;42.142;21.732;2024-02-23T07:38:57;29.15;;;21.25;;
85011;SDS011;75336;42.142;21.732;2024-02-23T07:41:23;20.80;;;15.27;;
85011;SDS011;75336;42.142;21.732;2024-02-23T07:43:49;22.75;;;16.30;;
85011;SDS011;75336;42.142;21.732;2024-02-23T07:46:16;27.98;;;19.45;;
85011;SDS011;75336;42.142;21.732;2024-02-23T07:48:42;28.50;;;16.73;;
85011;SDS011;75336;42.142;21.732;2024-02-23T07:51:09;21.50;;;15.93;;
85011;SDS011;75336;42.142;21.732;2024-02-23T07:53:36;27.42;;;19.73;;
85011;SDS011;75336;42.142;21.732;2024-02-23T07:56:02;21.27;;;16.70;;
85011;SDS011;75336;42.142;21.732;2024-02-23T07:58:29;22.25;;;16.95;;
85011;SDS011;75336;42.142;21.732;2024-02-23T08:00:55;20.42;;;14.43;;
85011;SDS011;75336;42.142;21.732;2024-02-23T08:03:21;26.85;;;18.83;;
85011;SDS011;75336;42.142;21.732;2024-02-23T08:05:47;26.17;;;19.13;;
85011;SDS011;75336;42.142;21.732;2024-02-23T08:08:14;25.00;;;19.17;;
85011;SDS011;75336;42.142;21.732;2024-02-23T08:10:40;24.13;;;18.20;;
85011;SDS011;75336;42.142;21.732;2024-02-23T08:13:06;24.77;;;17.70;;
85011;SDS011;75336;42.142;21.732;2024-02-23T08:15:34;27.25;;;18.63;;
85011;SDS011;75336;42.142;21.732;2024-02-23T08:18:01;34.33;;;24.27;;
85011;SDS011;75336;42.142;21.732;2024-02-23T08:20:27;26.88;;;19.08;;
85011;SDS011;75336;42.142;21.732;2024-02-23T08:22:53;28.38;;;16.25;;
85011;SDS011;75336;42.142;21.732;2024-02-23T08:25:19;25.17;;;16.58;;
85011;SDS011;75336;42.142;21.732;2024-02-23T08:27:46;21.45;;;15.82;;
85011;SDS011;75336;42.142;21.732;2024-02-23T08:30:15;26.00;;;17.40;;
85011;SDS011;75336;42.142;21.732;2024-02-23T08:32:41;25.35;;;18.58;;
85011;SDS011;75336;42.142;21.732;2024-02-23T08:35:07;25.75;;;17.85;;
85011;SDS011;75336;42.142;21.732;2024-02-23T08:37:33;23.55;;;16.08;;
85011;SDS011;75336;42.142;21.732;2024-02-23T08:39:59;21.20;;;16.15;;
85011;SDS011;75336;42.142;21.732;2024-02-23T08:42:26;21.88;;;15.95;;
85011;SDS011;75336;42.142;21.732;2024-02-23T08:44:52;17.90;;;13.60;;
85011;SDS011;75336;42.142;21.732;2024-02-23T08:47:19;18.67;;;13.02;;
85011;SDS011;75336;42.142;21.732;2024-02-23T08:49:45;17.83;;;12.18;;
85011;SDS011;75336;42.142;21.732;2024-02-23T08:52:13;19.35;;;11.43;;
85011;SDS011;75336;42.142;21.732;2024-02-23T08:54:39;15.77;;;9.13;;
85011;SDS011;75336;42.142;21.732;2024-02-23T08:57:05;19.33;;;13.63;;
85011;SDS011;75336;42.142;21.732;2024-02-23T08:59:32;20.00;;;13.60;;
85011;SDS011;75336;42.142;21.732;2024-02-23T09:01:58;17.02;;;13.27;;
85011;SDS011;75336;42.142;21.732;2024-02-23T09:04:24;21.70;;;15.85;;
85011;SDS011;75336;42.142;21.732;2024-02-23T09:06:51;23.10;;;11.07;;
85011;SDS011;75336;42.142;21.732;2024-02-23T09:09:18;18.15;;;13.43;;
85011;SDS011;75336;42.142;21.732;2024-02-23T09:11:44;15.48;;;11.05;;
85011;SDS011;75336;42.142;21.732;2024-02-23T09:14:10;18.35;;;12.35;;
85011;SDS011;75336;42.142;21.732;2024-02-23T09:16:36;18.20;;;12.73;;
85011;SDS011;75336;42.142;21.732;2024-02-23T09:19:02;14.65;;;11.40;;
85011;SDS011;75336;42.142;21.732;2024-02-23T09:21:28;19.45;;;12.90;;
85011;SDS011;75336;42.142;21.732;2024-02-23T09:23:54;66.00;;;35.13;;
85011;SDS011;75336;42.142;21.732;2024-02-23T09:26:21;15.30;;;11.35;;
85011;SDS011;75336;42.142;21.732;2024-02-23T09:28:47;17.15;;;10.15;;
85011;SDS011;75336;42.142;21.732;2024-02-23T09:31:13;9.60;;;6.82;;
85011;SDS011;75336;42.142;21.732;2024-02-23T09:33:39;16.25;;;11.18;;
85011;SDS011;75336;42.142;21.732;2024-02-23T09:36:05;15.25;;;10.73;;
85011;SDS011;75336;42.142;21.732;2024-02-23T09:38:32;13.55;;;10.05;;
85011;SDS011;75336;42.142;21.732;2024-02-23T09:40:58;13.40;;;10.10;;
85011;SDS011;75336;42.142;21.732;2024-02-23T09:43:26;18.52;;;13.10;;
85011;SDS011;75336;42.142;21.732;2024-02-23T09:45:53;22.25;;;15.55;;
85011;SDS011;75336;42.142;21.732;2024-02-23T09:48:20;14.13;;;10.05;;
85011;SDS011;75336;42.142;21.732;2024-02-23T09:50:47;7.57;;;6.07;;
85011;SDS011;75336;42.142;21.732;2024-02-23T09:53:14;12.10;;;8.60;;
85011;SDS011;75336;42.142;21.732;2024-02-23T09:55:40;10.95;;;8.55;;
85011;SDS011;75336;42.142;21.732;2024-02-23T09:58:06;14.68;;;8.98;;
85011;SDS011;75336;42.142;21.732;2024-02-23T10:00:34;11.43;;;8.88;;
85011;SDS011;75336;42.142;21.732;2024-02-23T10:03:02;16.42;;;10.48;;
85011;SDS011;75336;42.142;21.732;2024-02-23T10:07:57;12.70;;;8.77;;
85011;SDS011;75336;42.142;21.732;2024-02-23T10:10:29;10.60;;;7.40;;
85011;SDS011;75336;42.142;21.732;2024-02-23T10:12:57;13.63;;;10.07;;
85011;SDS011;75336;42.142;21.732;2024-02-23T10:15:23;13.40;;;9.75;;
85011;SDS011;75336;42.142;21.732;2024-02-23T10:17:49;12.95;;;9.75;;
85011;SDS011;75336;42.142;21.732;2024-02-23T10:20:15;12.35;;;9.35;;
85011;SDS011;75336;42.142;21.732;2024-02-23T10:22:42;18.48;;;10.60;;
85011;SDS011;75336;42.142;21.732;2024-02-23T10:25:09;11.73;;;8.27;;
85011;SDS011;75336;42.142;21.732;2024-02-23T10:27:35;13.82;;;9.68;;
85011;SDS011;75336;42.142;21.732;2024-02-23T10:30:02;10.15;;;7.53;;
85011;SDS011;75336;42.142;21.732;2024-02-23T10:32:29;9.85;;;6.40;;
85011;SDS011;75336;42.142;21.732;2024-02-23T10:34:59;14.70;;;11.07;;
85011;SDS011;75336;42.142;21.732;2024-02-23T10:37:29;7.43;;;3.22;;
85011;SDS011;75336;42.142;21.732;2024-02-23T10:39:57;10.60;;;6.35;;
85011;SDS011;75336;42.142;21.732;2024-02-23T10:42:24;35.92;;;9.00;;
85011;SDS011;75336;42.142;21.732;2024-02-23T10:44:53;9.88;;;6.72;;
85011;SDS011;75336;42.142;21.732;2024-02-23T10:47:20;15.98;;;7.50;;
85011;SDS011;75336;42.142;21.732;2024-02-23T10:49:47;15.63;;;9.20;;
85011;SDS011;75336;42.142;21.732;2024-02-23T10:52:14;52.13;;;29.27;;
85011;SDS011;75336;42.142;21.732;2024-02-23T10:54:42;33.17;;;17.48;;
85011;SDS011;75336;42.142;21.732;2024-02-23T10:57:10;9.50;;;6.70;;
85011;SDS011;75336;42.142;21.732;2024-02-23T10:59:38;5.75;;;4.35;;
85011;SDS011;75336;42.142;21.732;2024-02-23T11:02:04;12.98;;;7.82;;
85011;SDS011;75336;42.142;21.732;2024-02-23T11:04:31;9.38;;;6.78;;
85011;SDS011;75336;42.142;21.732;2024-02-23T11:06:59;12.68;;;8.88;;
85011;SDS011;75336;42.142;21.732;2024-02-23T11:09:29;10.45;;;6.95;;
85011;SDS011;75336;42.142;21.732;2024-02-23T11:11:58;7.57;;;5.45;;
85011;SDS011;75336;42.142;21.732;2024-02-23T11:16:57;15.95;;;9.93;;
85011;SDS011;75336;42.142;21.732;2024-02-23T11:19:37;8.27;;;6.88;;
85011;SDS011;75336;42.142;21.732;2024-02-23T11:22:04;8.48;;;6.25;;
85011;SDS011;75336;42.142;21.732;2024-02-23T11:24:31;11.00;;;7.72;;
85011;SDS011;75336;42.142;21.732;2024-02-23T11:27:01;9.57;;;5.50;;
85011;SDS011;75336;42.142;21.732;2024-02-23T11:29:34;5.88;;;4.43;;
85011;SDS011;75336;42.142;21.732;2024-02-23T11:32:04;7.10;;;5.85;;
85011;SDS011;75336;42.142;21.732;2024-02-23T11:37:07;15.05;;;9.90;;
85011;SDS011;75336;42.142;21.732;2024-02-23T11:39:36;9.65;;;6.50;;
85011;SDS011;75336;42.142;21.732;2024-02-23T11:42:04;14.07;;;8.68;;
85011;SDS011;75336;42.142;21.732;2024-02-23T11:44:30;16.27;;;11.27;;
85011;SDS011;75336;42.142;21.732;2024-02-23T11:46:56;17.58;;;10.25;;
85011;SDS011;75336;42.142;21.732;2024-02-23T11:49:28;3.50;;;3.08;;
85011;SDS011;75336;42.142;21.732;2024-02-23T11:51:54;3.75;;;2.78;;
85011;SDS011;75336;42.142;21.732;2024-02-23T11:54:21;5.72;;;4.05;;
85011;SDS011;75336;42.142;21.732;2024-02-23T11:56:48;19.48;;;13.15;;
85011;SDS011;75336;42.142;21.732;2024-02-23T12:01:40;5.78;;;3.80;;
85011;SDS011;75336;42.142;21.732;2024-02-23T12:04:07;8.57;;;5.30;;
85011;SDS011;75336;42.142;21.732;2024-02-23T12:06:33;11.35;;;9.23;;
85011;SDS011;75336;42.142;21.732;2024-02-23T12:09:01;11.45;;;6.97;;
85011;SDS011;75336;42.142;21.732;2024-02-23T12:11:27;15.93;;;12.88;;
85011;SDS011;75336;42.142;21.732;2024-02-23T12:13:53;8.02;;;6.40;;
85011;SDS011;75336;42.142;21.732;2024-02-23T12:16:22;15.23;;;7.95;;
85011;SDS011;75336;42.142;21.732;2024-02-23T12:18:54;18.02;;;6.93;;
85011;SDS011;75336;42.142;21.732;2024-02-23T12:21:21;4.18;;;3.13;;
85011;SDS011;75336;42.142;21.732;2024-02-23T12:23:49;5.57;;;3.90;;
85011;SDS011;75336;42.142;21.732;2024-02-23T12:26:16;7.88;;;4.10;;
85011;SDS011;75336;42.142;21.732;2024-02-23T12:31:09;4.80;;;3.28;;
85011;SDS011;75336;42.142;21.732;2024-02-23T12:33:36;3.75;;;2.13;;
85011;SDS011;75336;42.142;21.732;2024-02-23T12:36:05;6.78;;;4.10;;
85011;SDS011;75336;42.142;21.732;2024-02-23T12:38:32;8.60;;;5.90;;
85011;SDS011;75336;42.142;21.732;2024-02-23T12:40:59;7.15;;;4.57;;
85011;SDS011;75336;42.142;21.732;2024-02-23T12:43:25;7.57;;;4.22;;
85011;SDS011;75336;42.142;21.732;2024-02-23T12:45:52;3.80;;;3.10;;
85011;SDS011;75336;42.142;21.732;2024-02-23T12:48:18;7.55;;;4.47;;
85011;SDS011;75336;42.142;21.732;2024-02-23T12:50:46;4.63;;;2.65;;
85011;SDS011;75336;42.142;21.732;2024-02-23T12:56:04;3.67;;;3.03;;
85011;SDS011;75336;42.142;21.732;2024-02-23T13:00:56;10.68;;;6.47;;
85011;SDS011;75336;42.142;21.732;2024-02-23T13:03:23;4.18;;;3.22;;
85011;SDS011;75336;42.142;21.732;2024-02-23T13:05:50;4.90;;;3.40;;
85011;SDS011;75336;42.142;21.732;2024-02-23T13:08:16;4.40;;;3.58;;
85011;SDS011;75336;42.142;21.732;2024-02-23T13:10:43;4.63;;;4.18;;
85011;SDS011;75336;42.142;21.732;2024-02-23T13:13:09;5.40;;;4.18;;
85011;SDS011;75336;42.142;21.732;2024-02-23T13:15:36;5.55;;;4.03;;
85011;SDS011;75336;42.142;21.732;2024-02-23T13:18:03;5.45;;;3.85;;
85011;SDS011;75336;42.142;21.732;2024-02-23T13:20:30;4.57;;;3.35;;
85011;SDS011;75336;42.142;21.732;2024-02-23T13:22:56;6.93;;;3.28;;
85011;SDS011;75336;42.142;21.732;2024-02-23T13:25:22;5.15;;;3.25;;
85011;SDS011;75336;42.142;21.732;2024-02-23T13:27:48;4.80;;;3.47;;
85011;SDS011;75336;42.142;21.732;2024-02-23T13:30:14;7.55;;;4.22;;
85011;SDS011;75336;42.142;21.732;2024-02-23T13:32:41;6.15;;;4.43;;
85011;SDS011;75336;42.142;21.732;2024-02-23T13:35:07;17.88;;;10.23;;
85011;SDS011;75336;42.142;21.732;2024-02-23T13:37:33;7.10;;;4.70;;
85011;SDS011;75336;42.142;21.732;2024-02-23T13:40:00;10.10;;;6.30;;
85011;SDS011;75336;42.142;21.732;2024-02-23T13:42:26;6.53;;;5.20;;
85011;SDS011;75336;42.142;21.732;2024-02-23T13:44:52;11.80;;;7.35;;
85011;SDS011;75336;42.142;21.732;2024-02-23T13:47:19;17.52;;;9.27;;
85011;SDS011;75336;42.142;21.732;2024-02-23T13:49:45;13.80;;;7.07;;
85011;SDS011;75336;42.142;21.732;2024-02-23T13:52:11;8.50;;;5.65;;
85011;SDS011;75336;42.142;21.732;2024-02-23T13:54:37;16.23;;;5.57;;
85011;SDS011;75336;42.142;21.732;2024-02-23T13:57:03;11.75;;;7.03;;
85011;SDS011;75336;42.142;21.732;2024-02-23T13:59:30;11.23;;;7.82;;
85011;SDS011;75336;42.142;21.732;2024-02-23T14:01:56;11.98;;;7.22;;
85011;SDS011;75336;42.142;21.732;2024-02-23T14:04:22;8.65;;;5.40;;
85011;SDS011;75336;42.142;21.732;2024-02-23T14:06:48;5.03;;;3.63;;
85011;SDS011;75336;42.142;21.732;2024-02-23T14:09:14;9.48;;;5.25;;
85011;SDS011;75336;42.142;21.732;2024-02-23T14:11:40;8.45;;;5.20;;
85011;SDS011;75336;42.142;21.732;2024-02-23T14:14:07;7.40;;;4.60;;
85011;SDS011;75336;42.142;21.732;2024-02-23T14:16:33;11.60;;;7.18;;
85011;SDS011;75336;42.142;21.732;2024-02-23T14:19:00;13.35;;;8.65;;
85011;SDS011;75336;42.142;21.732;2024-02-23T14:21:26;10.38;;;6.22;;
85011;SDS011;75336;42.142;21.732;2024-02-23T14:23:52;5.95;;;4.57;;
85011;SDS011;75336;42.142;21.732;2024-02-23T14:26:18;6.35;;;4.63;;